x

Fred Howard Park, Fl (fhpf1) Weather Station

10:54am - Thu 21st Jun 2018 All times are EDT. -4 hours from GMT.

  • Wind
    14mph, 18mph gusts
  • Air Temp 86°f
  • Sea Pressure 1015.7mb
  • Fred Howard Park, Fl
  • Fred Howard Park, Fl

More Historic Weather Station data

Upgrade to MSW Pro to gain access to the past 30 days of data for over 8000 Wavebouys and Weather Stations around the globe.

Join

Comparision Forecast

View Surf forecast
   
Thu 06/21 10:54am 14 18 mph 1015.7mb 86f
10:48am 15 18 mph 1015.5mb 86f
9:54am 14 17 mph 1015.2mb 85f
9:48am 14 17 mph 1015.3mb 85f
8:54am 13 16 mph 1015.6mb 84f
8:48am 14 17 mph 1015.4mb 84f
7:54am 10 15 mph 1015mb 84f
7:48am 13 15 mph 1015mb 84f
6:54am 13 15 mph 1014.6mb 84f
6:48am 10 14 mph 1014.6mb 84f
5:54am 9 13 mph 1014.1mb 84f
5:48am 10 13 mph 1014.1mb 84f
4:54am 9 13 mph 1013.8mb 84f
4:48am 9 13 mph 1013.8mb 84f
3:54am 9 11 mph 1013.8mb 84f
3:48am 9 10 mph 1013.8mb 84f
2:54am 8 10 mph 1014.2mb 84f
2:48am 7 9 mph 1014.3mb 84f
1:54am 7 9 mph 1014.5mb 84f
1:48am 7 9 mph 1014.6mb 84f
12:54am 7 9 mph 1015mb 85f
12:48am 6 8 mph 1015mb 85f
Wed 06/20 11:54pm 7 9 mph 1015.5mb 85f
11:48pm 6 8 mph 1015.4mb 85f
10:54pm 8 10 mph 1014.7mb 85f
10:48pm 8 9 mph 1014.6mb 85f
9:54pm 7 9 mph 1014.3mb 85f
9:48pm 7 9 mph 1014.3mb 85f
8:54pm 7 10 mph 1014.2mb 85f
8:48pm 7 10 mph 1014.2mb 85f
7:54pm 7 10 mph 1014.2mb 86f
7:48pm 7 10 mph 1014.2mb 86f
6:54pm 9 13 mph 1014mb 87f
6:48pm 9 13 mph 1014mb 87f
5:54pm 10 14 mph 1013.9mb 87f
5:48pm 10 14 mph 1013.8mb 87f
4:54pm 10 13 mph 1013.9mb 87f
4:48pm 10 13 mph 1013.9mb 87f
3:54pm 9 10 mph 1014.2mb 86f
3:48pm 9 11 mph 1014.3mb 86f
2:54pm 9 11 mph 1014.8mb 85f
2:48pm 9 10 mph 1014.8mb 85f
1:54pm 9 10 mph 1015.3mb 86f
1:48pm 8 9 mph 1015.4mb 86f
12:54pm 7 9 mph 1015.8mb 84f
12:48pm 7 9 mph 1015.8mb 84f
11:54am 8 9 mph 1015.8mb 86f
11:48am 7 9 mph 1015.8mb 85f
10:54am 7 9 mph 1015.7mb 85f
10:48am 7 9 mph 1015.7mb 85f
9:54am 7 9 mph 1016.1mb 85f
9:48am 8 9 mph 1016.2mb 85f
8:54am 5 6 mph 1016mb 85f
8:48am 5 6 mph 1015.7mb 85f
7:54am 6 8 mph 1015.7mb 85f
7:48am 5 7 mph 1015.7mb 84f
6:54am 3 3 mph 1015.1mb 81f
5:54am 2 3 mph 1014.8mb 82f
5:48am 2 2 mph 1014.6mb 82f
3:54am 5 6 mph 1014.6mb 83f
3:48am 3 5 mph 1014.6mb 83f
2:54am 5 6 mph 1015mb 82f
2:48am 3 5 mph 1015.1mb 82f
1:54am 5 5 mph 1015.4mb 83f
1:48am 5 5 mph 1015.6mb 83f
12:54am 3 5 mph 1016.4mb 84f
12:48am 3 5 mph 1016.3mb 84f
Tue 06/19 11:54pm 1 3 mph 1016.2mb 85f
11:48pm 3 5 mph 1016.2mb 85f
10:54pm 6 8 mph 1015.9mb 85f
9:54pm 6 8 mph 1015.4mb 85f
9:48pm 6 7 mph 1015.4mb 85f
8:54pm 5 7 mph 1015.2mb 85f
8:48pm 5 6 mph 1015.3mb 85f
7:54pm 6 8 mph 1015.3mb 86f
7:48pm 7 9 mph 1015.3mb 86f
6:54pm 7 10 mph 1015.2mb 87f
6:48pm 8 10 mph 1015.2mb 87f
4:54pm 3 5 mph 1015.7mb 82f
4:48pm 6 8 mph 1016mb 81f
3:54pm 7 9 mph 1016.3mb 85f
3:48pm 7 13 mph 1016.4mb 85f
2:54pm 9 11 mph 1016.8mb 86f
2:48pm 9 11 mph 1016.8mb 86f
1:54pm 9 11 mph 1017mb 85f
1:48pm 9 11 mph 1017.1mb 86f
12:54pm 7 9 mph 1017.8mb 84f
12:48pm 8 9 mph 1017.7mb 85f
11:54am 7 8 mph 1018.1mb 85f
11:48am 6 7 mph 1018.1mb 86f
10:54am 5 6 mph 1018.3mb 84f
10:48am 2 5 mph 1018.3mb 84f
9:54am 1 2 mph 1018.6mb 83f
9:48am 1 3 mph 1018.5mb 83f
8:54am 5 7 mph 1018.5mb 82f
8:48am 6 8 mph 1018.5mb 82f
7:54am 7 8 mph 1018.6mb 80f
7:48am 7 8 mph 1018.5mb 79f
6:54am 7 8 mph 1018.2mb 79f
6:48am 7 8 mph 1018.1mb 79f
5:54am 6 7 mph 1017.7mb 80f
5:48am 6 7 mph 1017.6mb 80f
4:54am 7 8 mph 1017.3mb 80f
4:48am 7 8 mph 1017.3mb 80f
3:54am 7 9 mph 1017.1mb 81f
3:48am 7 9 mph 1017.2mb 81f
2:54am 7 9 mph 1017.4mb 81f
2:48am 6 8 mph 1017.4mb 81f
1:54am 8 9 mph 1018mb 81f
1:48am 8 8 mph 1018.1mb 81f
12:54am 9 10 mph 1018.5mb 82f
12:48am 8 10 mph 1018.5mb 82f
Mon 06/18 11:54pm 7 8 mph 1018.9mb 83f
11:48pm 8 9 mph 1018.9mb 83f
10:54pm 10 13 mph 1018.4mb 83f
10:48pm 10 13 mph 1018.4mb 83f
9:54pm 9 13 mph 1018.5mb 86f
9:48pm 10 13 mph 1018.5mb 86f
8:54pm 5 6 mph 1018.4mb 85f
8:48pm 3 6 mph 1018.4mb 86f
7:54pm 9 10 mph 1017.9mb 86f
7:48pm 9 11 mph 1017.7mb 86f
6:54pm 9 11 mph 1017.8mb 87f
6:48pm 10 13 mph 1017.7mb 87f
5:54pm 9 10 mph 1018mb 88f
5:48pm 9 11 mph 1018.1mb 88f
4:54pm 8 11 mph 1018.3mb 88f
4:48pm 9 11 mph 1018.4mb 88f
3:54pm 9 11 mph 1018.8mb 87f
3:48pm 9 11 mph 1019mb 88f